Time;durP1;ratioP1;P1;durP2;ratioP2;P2;SDS_P1;SDS_P2;PMS_P1;PMS_P2;Temp;Humidity;BMP_temperature;BMP_pressure;BME280_temperature;BME280_humidity;BME280_pressure;Samples;Min_cycle;Max_cycle;Signal;HPM_P1;HPM_P2
2022/11/29 02:31:10;;;;;;;10.98;7.37;;;;;;;0.15;100.00;101000.44;1836141;75;26938;-73
2022/11/29 02:33:54;;;;;;;10.95;7.05;;;;;;;0.44;100.00;100987.64;1820173;76;21454;-72
2022/11/29 02:36:48;;;;;;;10.18;6.17;;;;;;;0.77;100.00;100991.28;1827633;76;21631;-73
2022/11/29 02:40:04;;;;;;;7.05;5.17;;;;;;;0.89;100.00;100992.82;1821706;76;21530;-75
2022/11/29 02:43:01;;;;;;;10.23;5.45;;;;;;;1.01;100.00;100977.05;1804197;77;21550;-72
2022/11/29 02:45:31;;;;;;;;;;;;;;;1.14;100.00;100979.87;1801906;77;21484;-71
2022/11/29 02:48:39;;;;;;;6.03;4.40;;;;;;;1.20;100.00;100973.05;1830403;76;20560;-71
2022/11/29 02:51:26;;;;;;;;;;;;;;;1.28;100.00;100977.53;1808858;77;21830;-69
2022/11/29 02:54:07;;;;;;;6.10;3.98;;;;;;;1.33;100.00;100973.70;1795536;77;20145;-70
2022/11/29 02:56:54;;;;;;;6.35;4.22;;;;;;;1.42;100.00;100971.26;1814825;77;21490;-70
2022/11/29 02:59:53;;;;;;;7.60;4.92;;;;;;;1.52;100.00;100967.95;1818651;77;22327;-70
2022/11/29 03:02:50;;;;;;;5.42;4.45;;;;;;;1.59;100.00;100964.17;1818354;76;21431;-69
2022/11/29 03:05:52;;;;;;;5.55;4.42;;;;;;;1.63;100.00;100954.29;1805635;76;21884;-70
2022/11/29 03:08:48;;;;;;;6.22;3.75;;;;;;;1.65;100.00;100962.96;1819278;77;21550;-70
2022/11/29 03:11:43;;;;;;;5.17;4.30;;;;;;;1.71;100.00;100956.56;1803648;76;21457;-72
2022/11/29 03:14:27;;;;;;;6.20;4.20;;;;;;;1.75;100.00;100959.23;1818411;77;21744;-70
2022/11/29 03:17:13;;;;;;;5.50;4.42;;;;;;;1.79;100.00;100956.66;1842908;76;21463;-69
2022/11/29 03:19:55;;;;;;;6.17;3.95;;;;;;;1.82;100.00;100970.98;1829947;77;21834;-69
2022/11/29 03:22:56;;;;;;;5.62;4.22;;;;;;;1.85;100.00;100964.12;1839175;76;21036;-68
2022/11/29 03:25:39;;;;;;;5.70;3.55;;;;;;;1.84;100.00;100971.44;1832677;76;21815;-70
2022/11/29 03:28:16;;;;;;;4.03;3.47;;;;;;;1.86;100.00;100978.81;1828207;77;22498;-69
2022/11/29 03:30:54;;;;;;;4.30;3.60;;;;;;;1.86;100.00;100974.06;1800380;76;21592;-69
2022/11/29 03:33:27;;;;;;;;;;;;;;;1.84;100.00;100979.66;1728355;78;21858;-69
2022/11/29 03:35:59;;;;;;;4.08;3.55;;;;;;;1.73;100.00;100977.80;1751356;79;20424;-69
2022/11/29 03:38:41;;;;;;;5.17;4.08;;;;;;;1.76;100.00;100978.25;1765733;79;21489;-69
2022/11/29 03:41:42;;;;;;;4.12;3.40;;;;;;;1.78;100.00;100988.22;1754544;78;21635;-69
2022/11/29 03:44:28;;;;;;;4.80;3.90;;;;;;;1.79;100.00;100986.09;1758071;79;21524;-68
2022/11/29 03:47:18;;;;;;;4.50;3.52;;;;;;;1.82;100.00;100986.55;1765208;80;21941;-70
2022/11/29 03:49:52;;;;;;;4.10;3.55;;;;;;;1.84;100.00;100988.73;1769079;78;21455;-69
2022/11/29 03:52:45;;;;;;;5.17;3.90;;;;;;;1.87;100.00;100989.65;1778832;78;21508;-69
2022/11/29 03:55:44;;;;;;;4.87;3.37;;;;;;;1.90;100.00;100997.89;1743811;80;21555;-68
2022/11/29 03:58:41;;;;;;;6.03;3.87;;;;;;;1.84;100.00;100997.81;1814192;76;21565;-68
2022/11/29 04:01:34;;;;;;;5.10;3.70;;;;;;;1.85;100.00;100996.54;1794998;77;21673;-68
2022/11/29 04:04:21;;;;;;;3.72;3.35;;;;;;;1.83;100.00;100996.95;1792423;77;21423;-69
2022/11/29 04:07:25;;;;;;;3.92;3.42;;;;;;;1.80;100.00;100999.92;1824930;76;21442;-69
2022/11/29 04:10:16;;;;;;;4.17;3.27;;;;;;;1.77;100.00;100994.67;1795438;77;20968;-70
2022/11/29 04:12:51;;;;;;;4.35;3.47;;;;;;;1.77;100.00;100999.86;1811305;77;21526;-69
2022/11/29 04:15:43;;;;;;;4.60;3.27;;;;;;;1.78;100.00;100997.30;1835443;75;21527;-70
2022/11/29 04:18:33;;;;;;;5.67;3.65;;;;;;;1.76;100.00;100996.41;1788846;76;21384;-70
2022/11/29 04:21:26;;;;;;;3.47;2.98;;;;;;;1.70;100.00;100994.59;1803471;77;20923;-70
2022/11/29 04:24:12;;;;;;;3.98;3.27;;;;;;;1.71;100.00;100994.16;1831661;77;21501;-69
2022/11/29 04:27:16;;;;;;;3.92;3.33;;;;;;;1.74;100.00;100995.08;1801168;76;21387;-69
2022/11/29 04:30:01;;;;;;;4.28;2.95;;;;;;;1.75;100.00;100993.34;1762764;77;21990;-70
2022/11/29 04:33:00;;;;;;;3.70;3.37;;;;;;;1.75;100.00;100989.45;1827184;75;21495;-70
2022/11/29 04:36:11;;;;;;;4.25;2.92;;;;;;;1.75;100.00;100990.75;1742982;80;21504;-74
2022/11/29 04:38:54;;;;;;;3.10;2.80;;;;;;;1.76;100.00;100997.70;1749136;80;21553;-73
2022/11/29 04:41:44;;;;;;;4.12;2.98;;;;;;;1.76;100.00;101009.38;1812857;77;21565;-74
2022/11/29 04:44:25;;;;;;;3.95;3.00;;;;;;;1.80;100.00;101003.37;1809571;75;21859;-74
2022/11/29 04:47:14;;;;;;;3.37;2.80;;;;;;;1.80;100.00;101002.51;1829066;77;21705;-74
2022/11/29 04:50:11;;;;;;;3.00;2.70;;;;;;;1.78;100.00;101005.51;1799729;76;21680;-74
2022/11/29 04:53:09;;;;;;;2.77;2.58;;;;;;;1.76;100.00;101005.48;1825794;75;21018;-74
2022/11/29 04:55:49;;;;;;;3.20;2.90;;;;;;;1.75;100.00;100996.84;1830380;75;21475;-74
2022/11/29 04:58:44;;;;;;;3.92;2.85;;;;;;;1.72;100.00;100999.80;1718147;77;21594;-75
2022/11/29 05:01:28;;;;;;;2.80;2.60;;;;;;;1.73;100.00;101007.61;1827886;77;21403;-74
2022/11/29 05:04:09;;;;;;;2.70;2.50;;;;;;;1.74;100.00;101008.48;1799633;77;20991;-73
2022/11/29 05:06:55;;;;;;;2.62;2.30;;;;;;;1.73;100.00;101002.83;1804740;77;21598;-71
2022/11/29 05:09:49;;;;;;;3.35;3.05;;;;;;;1.73;100.00;101002.83;1806519;77;21565;-72
2022/11/29 05:12:30;;;;;;;2.75;2.45;;;;;;;1.72;100.00;101004.99;1822508;75;21862;-71
2022/11/29 05:15:48;;;;;;;5.05;2.80;;;;;;;1.76;100.00;101011.97;1804878;77;21452;-71
2022/11/29 05:18:55;;;;;;;3.77;3.20;;;;;;;1.77;100.00;101005.91;1784267;77;21051;-71
2022/11/29 05:21:57;;;;;;;2.85;2.60;;;;;;;1.73;100.00;101008.91;1795594;77;21528;-72
2022/11/29 05:24:47;;;;;;;2.45;2.25;;;;;;;1.71;100.00;101020.98;1815234;76;21539;-78
2022/11/29 05:27:21;;;;;;;3.02;2.72;;;;;;;1.75;100.00;101021.88;1837534;75;21441;-78
2022/11/29 05:30:05;;;;;;;2.67;2.45;;;;;;;1.77;100.00;101021.47;1828676;75;22113;-80
2022/11/29 05:32:58;;;;;;;2.80;2.60;;;;;;;1.80;100.00;101037.09;1827881;76;21498;-71
2022/11/29 05:36:03;;;;;;;2.72;2.52;;;;;;;1.73;100.00;101036.14;1763073;79;21497;-71
2022/11/29 05:38:58;;;;;;;2.70;2.42;;;;;;;1.70;100.00;101036.08;1754062;79;21411;-71
2022/11/29 05:41:47;;;;;;;3.08;2.55;;;;;;;1.73;100.00;101035.24;1749803;79;21794;-73
2022/11/29 05:44:36;;;;;;;2.90;2.62;;;;;;;1.70;100.00;101035.22;1798862;77;21586;-72
2022/11/29 05:47:05;;;;;;;3.37;3.08;;;;;;;1.70;100.00;101039.11;1816453;76;21503;-73
2022/11/29 05:50:12;;;;;;;3.80;3.00;;;;;;;1.73;100.00;101037.44;1760552;79;21100;-71
2022/11/29 05:53:13;;;;;;;3.55;3.00;;;;;;;1.70;100.00;101042.99;1829695;76;21513;-71
2022/11/29 05:55:57;;;;;;;4.12;2.67;;;;;;;1.70;100.00;101059.42;1813018;77;21865;-70
2022/11/29 05:58:57;;;;;;;3.30;2.70;;;;;;;1.71;100.00;101070.25;1819955;76;21636;-69
2022/11/29 14:26:01;;;;;;;11.57;8.08;;;;;;;-0.87;100.00;101054.41;1769028;80;23253;-68
2022/11/29 14:28:31;;;;;;;12.30;7.55;;;;;;;-0.56;100.00;101078.05;1739831;81;20994;-65
2022/11/29 14:31:00;;;;;;;12.00;7.92;;;;;;;-0.33;100.00;101082.92;1734381;81;21876;-66
2022/11/29 14:33:48;;;;;;;10.85;7.30;;;;;;;-0.17;100.00;101074.70;1738610;81;20982;-66
2022/11/29 14:36:32;;;;;;;9.05;6.78;;;;;;;-0.07;100.00;101070.19;1741919;81;21559;-68
2022/11/29 14:39:26;;;;;;;10.78;7.22;;;;;;;0.04;100.00;101071.74;1744925;81;21623;-68
2022/11/29 14:42:18;;;;;;;12.13;6.75;;;;;;;0.18;100.00;101070.32;1743568;81;21457;-71
2022/11/29 14:44:53;;;;;;;8.90;6.05;;;;;;;0.30;100.00;101058.10;1745650;81;21839;-68
2022/11/29 14:47:37;;;;;;;8.55;6.28;;;;;;;0.35;100.00;101061.64;1739172;81;21040;-69
2022/11/29 14:50:08;;;;;;;7.67;6.35;;;;;;;0.44;100.00;101056.22;1743206;81;21423;-68
2022/11/29 14:52:39;;;;;;;10.35;6.58;;;;;;;0.52;100.00;101059.83;1741742;81;21462;-68
2022/11/29 14:55:27;;;;;;;7.10;6.03;;;;;;;0.58;100.00;101056.97;1717171;81;21470;-70
2022/11/29 14:58:04;;;;;;;7.55;5.83;;;;;;;0.63;100.00;101060.92;1741349;81;21987;-70
2022/11/29 15:00:48;;;;;;;8.38;5.70;;;;;;;0.63;100.00;101057.48;1746131;81;21503;-70
2022/11/29 15:03:34;;;;;;;7.90;5.40;;;;;;;0.68;100.00;101059.31;1744384;81;21664;-72
2022/11/29 15:06:18;;;;;;;6.58;5.28;;;;;;;0.70;100.00;101058.05;1743337;81;21590;-70
2022/11/29 15:09:06;;;;;;;7.08;5.12;;;;;;;0.75;100.00;101056.41;1729493;81;21574;-71
2022/11/29 15:11:50;;;;;;;8.75;5.90;;;;;;;0.80;100.00;101059.11;1739515;81;21904;-68
2022/11/29 15:14:46;;;;;;;10.08;6.08;;;;;;;0.87;100.00;101060.55;1738275;81;21413;-68
2022/11/29 15:17:50;;;;;;;10.23;6.08;;;;;;;0.92;100.00;101059.33;1746385;81;21545;-69
2022/11/29 15:20:43;;;;;;;8.50;6.30;;;;;;;0.89;100.00;101054.11;1738760;81;21497;-68
2022/11/29 15:23:13;;;;;;;10.48;6.40;;;;;;;0.88;100.00;101060.98;1745035;81;21638;-68
2022/11/29 15:25:50;;;;;;;7.25;5.65;;;;;;;0.88;100.00;101059.69;1721818;81;21772;-68
2022/11/29 15:28:28;;;;;;;11.22;5.95;;;;;;;0.89;100.00;101061.88;1730262;82;21025;-68
2022/11/29 15:31:09;;;;;;;10.60;6.08;;;;;;;0.92;100.00;101057.63;1727607;81;21600;-68
2022/11/29 15:33:39;;;;;;;8.75;5.62;;;;;;;0.94;100.00;101058.53;1730317;82;21015;-69
2022/11/29 15:36:18;;;;;;;9.53;5.80;;;;;;;0.97;100.00;101060.30;1720800;82;21078;-68
2022/11/29 15:38:50;;;;;;;8.73;5.90;;;;;;;0.99;100.00;101059.91;1721930;82;21509;-69
2022/11/29 15:41:23;;;;;;;7.97;5.92;;;;;;;1.01;100.00;101060.80;1716675;82;20970;-67
2022/11/29 15:43:53;;;;;;;8.80;6.37;;;;;;;1.01;100.00;101065.11;1708565;82;21574;-68
2022/11/29 15:46:28;;;;;;;6.70;5.30;;;;;;;1.01;100.00;101064.69;1732957;82;21057;-70
2022/11/29 17:09:27;;;;;;;10.20;5.47;;;;;;;-0.61;100.00;101092.55;1735819;79;21674;-70
2022/11/29 17:11:55;;;;;;;6.97;5.37;;;;;;;-0.38;100.00;101094.84;1722697;82;21587;-69
2022/11/29 17:14:23;;;;;;;9.38;5.60;;;;;;;-0.26;100.00;101093.88;1724725;82;21017;-69
2022/11/29 17:16:50;;;;;;;10.85;5.35;;;;;;;-0.14;100.00;101090.27;1723766;82;20975;-70
2022/11/29 17:19:23;;;;;;;8.78;5.60;;;;;;;-0.04;100.00;101088.77;1728780;81;21549;-68
2022/11/29 17:21:50;;;;;;;6.15;5.08;;;;;;;0.04;100.00;101081.19;1719098;82;21888;-70
2022/11/29 17:24:19;;;;;;;7.15;5.12;;;;;;;0.11;100.00;101081.79;1721778;81;22472;-69
2022/11/29 17:26:46;;;;;;;6.60;5.28;;;;;;;0.14;100.00;101080.58;1724571;81;21538;-69
2022/11/29 17:29:14;;;;;;;5.67;4.55;;;;;;;0.23;100.00;101080.79;1720762;82;21468;-68
2022/11/29 17:31:42;;;;;;;7.25;4.35;;;;;;;0.29;100.00;101077.03;1724613;81;21480;-68
2022/11/29 17:34:09;;;;;;;8.10;5.08;;;;;;;0.36;100.00;101081.94;1715421;81;21503;-68
2022/11/29 17:36:36;;;;;;;6.53;4.87;;;;;;;0.43;100.00;101090.27;1722143;81;21903;-68
2022/11/29 17:39:03;;;;;;;7.03;5.17;;;;;;;0.48;100.00;101093.83;1720742;82;21521;-67
2022/11/29 17:41:31;;;;;;;6.30;4.45;;;;;;;0.55;100.00;101092.27;1722713;82;21814;-66
2022/11/29 17:43:59;;;;;;;7.30;5.08;;;;;;;0.60;100.00;101084.58;1720041;82;21564;-66
2022/11/29 17:46:31;;;;;;;8.38;5.08;;;;;;;0.63;100.00;101086.81;1726235;81;21741;-68
2022/11/29 17:48:59;;;;;;;5.67;5.08;;;;;;;0.67;100.00;101091.20;1721822;82;21867;-70
2022/11/29 17:51:27;;;;;;;7.35;4.90;;;;;;;0.66;100.00;101082.11;1727922;81;21646;-69
2022/11/29 17:53:53;;;;;;;9.98;5.25;;;;;;;0.66;100.00;101085.59;1721261;81;21564;-69
2022/11/29 17:56:23;;;;;;;8.23;4.92;;;;;;;0.67;100.00;101084.73;1729516;82;21053;-69
2022/11/29 17:58:53;;;;;;;5.78;4.35;;;;;;;0.71;100.00;101082.66;1723994;81;20969;-68
2022/11/29 18:01:22;;;;;;;5.25;4.50;;;;;;;0.72;100.00;101088.30;1726163;82;21996;-68
2022/11/29 18:03:54;;;;;;;6.92;5.20;;;;;;;0.75;100.00;101084.49;1723887;81;21622;-68
2022/11/29 18:06:23;;;;;;;6.03;4.37;;;;;;;0.75;100.00;101083.59;1728306;82;21116;-66
2022/11/29 18:08:58;;;;;;;6.25;4.80;;;;;;;0.74;100.00;101082.73;1723485;80;21545;-65
2022/11/29 18:11:30;;;;;;;8.05;4.72;;;;;;;0.77;100.00;101079.31;1717817;82;20986;-67
2022/11/29 18:13:57;;;;;;;6.58;4.92;;;;;;;0.78;100.00;101084.53;1743811;80;22036;-66
2022/11/29 18:16:30;;;;;;;8.93;4.90;;;;;;;0.77;100.00;101084.50;1746755;80;21496;-66
2022/11/29 18:19:07;;;;;;;5.65;4.80;;;;;;;0.78;100.00;101087.55;1714592;81;21434;-70
2022/11/29 18:21:34;;;;;;;5.62;4.87;;;;;;;0.77;100.00;101084.09;1704731;82;21456;-71
2022/11/29 18:24:03;;;;;;;5.07;4.57;;;;;;;0.78;100.00;101081.94;1745146;80;21653;-66
2022/11/29 18:26:30;;;;;;;7.30;5.17;;;;;;;0.81;100.00;101076.38;1744369;81;21876;-69
2022/11/29 18:28:58;;;;;;;6.05;4.78;;;;;;;0.82;100.00;101081.59;1737403;80;21255;-73
2022/11/29 18:31:27;;;;;;;9.85;4.92;;;;;;;0.80;100.00;101081.12;1743237;80;21418;-68
2022/11/29 18:33:56;;;;;;;8.15;5.10;;;;;;;0.74;100.00;101077.55;1747148;80;21544;-68
2022/11/29 18:36:32;;;;;;;6.17;4.83;;;;;;;0.75;100.00;101079.71;1745235;80;20974;-68
2022/11/29 18:39:01;;;;;;;7.42;5.05;;;;;;;0.71;100.00;101083.95;1742237;80;21791;-70
